createdAt,value
2024-03-16T00:01:56.881Z,54.90
2024-03-16T00:04:24.617Z,54.98
2024-03-16T00:06:52.233Z,54.87
2024-03-16T00:09:21.552Z,54.81
2024-03-16T00:11:49.185Z,54.87
2024-03-16T00:14:16.821Z,54.94
2024-03-16T00:16:44.421Z,55.39
2024-03-16T00:19:11.999Z,55.65
2024-03-16T00:21:39.664Z,54.06
2024-03-16T00:24:09.673Z,55.23
2024-03-16T00:26:37.341Z,55.36
2024-03-16T00:29:08.821Z,55.68
2024-03-16T00:31:36.648Z,55.97
2024-03-16T00:34:07.236Z,55.37
2024-03-16T00:36:35.083Z,55.23
2024-03-16T00:39:03.012Z,55.03
2024-03-16T00:41:30.620Z,56.20
2024-03-16T00:43:58.883Z,55.98
2024-03-16T00:46:26.524Z,56.16
2024-03-16T00:48:54.322Z,55.67
2024-03-16T00:51:22.179Z,56.23
2024-03-16T00:53:49.689Z,55.60
2024-03-16T00:56:17.327Z,55.70
2024-03-16T00:58:47.830Z,55.76
2024-03-16T01:01:15.623Z,56.25
2024-03-16T01:03:43.444Z,56.56
2024-03-16T01:06:11.106Z,55.73
2024-03-16T01:08:38.665Z,55.08
2024-03-16T01:11:07.386Z,55.47
2024-03-16T01:13:35.006Z,54.96
2024-03-16T01:16:03.140Z,55.11
2024-03-16T01:18:31.313Z,55.24
2024-03-16T01:20:59.122Z,54.98
2024-03-16T01:23:26.872Z,54.71
2024-03-16T01:25:54.518Z,55.22
2024-03-16T01:28:22.095Z,56.22
2024-03-16T01:30:50.281Z,55.58
2024-03-16T01:33:17.934Z,55.92
2024-03-16T01:35:46.250Z,55.56
2024-03-16T01:38:13.837Z,55.75
2024-03-16T01:40:41.857Z,54.79
2024-03-16T01:43:13.632Z,54.97
2024-03-16T01:45:42.652Z,55.72
2024-03-16T01:48:12.858Z,55.47
2024-03-16T01:50:42.210Z,53.06
2024-03-16T01:53:13.452Z,53.50
2024-03-16T01:55:41.084Z,52.25
2024-03-16T01:58:09.207Z,52.31
2024-03-16T02:00:37.795Z,52.90
2024-03-16T02:03:06.210Z,53.14
2024-03-16T02:05:33.813Z,53.44
2024-03-16T02:08:02.613Z,52.52
2024-03-16T02:10:30.381Z,52.90
2024-03-16T02:12:57.986Z,53.70
2024-03-16T02:15:25.707Z,54.15
2024-03-16T02:17:53.203Z,54.30
2024-03-16T02:20:21.346Z,53.43
2024-03-16T02:22:51.215Z,54.63
2024-03-16T02:25:20.165Z,55.05
2024-03-16T02:27:48.810Z,55.63
2024-03-16T02:30:16.695Z,55.20
2024-03-16T02:32:44.351Z,55.63
2024-03-16T02:35:12.400Z,54.69
2024-03-16T02:37:40.191Z,54.84
2024-03-16T02:40:08.751Z,55.40
2024-03-16T02:42:36.869Z,55.39
2024-03-16T02:45:05.064Z,55.52
2024-03-16T02:47:35.550Z,54.72
2024-03-16T02:50:05.435Z,55.08
2024-03-16T02:52:34.457Z,54.68
2024-03-16T02:55:02.222Z,54.57
2024-03-16T02:57:31.698Z,54.06
2024-03-16T02:59:59.334Z,54.33
2024-03-16T03:05:20.856Z,53.95
2024-03-16T03:07:49.061Z,53.71
2024-03-16T03:10:17.242Z,53.33
2024-03-16T03:12:57.542Z,52.76
2024-03-16T03:15:25.725Z,52.00
2024-03-16T03:17:53.558Z,50.84
2024-03-16T03:20:23.786Z,51.04
2024-03-16T03:22:52.134Z,50.34
2024-03-16T03:25:23.017Z,50.20
2024-03-16T03:27:51.076Z,50.03
2024-03-16T03:30:21.161Z,50.16
2024-03-16T03:32:48.840Z,49.34
2024-03-16T03:35:16.449Z,49.48
2024-03-16T03:37:44.001Z,49.49
2024-03-16T03:40:11.878Z,49.18
2024-03-16T03:42:45.640Z,49.05
2024-03-16T03:45:26.878Z,48.61
2024-03-16T03:48:26.722Z,48.57
2024-03-16T03:50:57.318Z,48.09
2024-03-16T03:53:27.055Z,48.64
2024-03-16T03:55:55.480Z,48.00
2024-03-16T03:58:23.794Z,48.06
2024-03-16T04:00:51.525Z,47.39
2024-03-16T04:03:19.441Z,47.85
2024-03-16T04:05:52.041Z,47.12
2024-03-16T04:08:19.649Z,47.65
2024-03-16T04:10:47.263Z,47.88
2024-03-16T04:13:14.923Z,47.77
2024-03-16T04:15:42.857Z,47.23
2024-03-16T04:18:10.828Z,46.78
2024-03-16T04:20:38.593Z,46.96
2024-03-16T04:23:08.448Z,47.26
2024-03-16T04:25:36.133Z,46.33
2024-03-16T04:28:04.152Z,46.76
2024-03-16T04:30:31.947Z,46.98
2024-03-16T04:32:59.589Z,46.33
2024-03-16T04:35:27.248Z,45.91
2024-03-16T04:37:55.607Z,46.30
2024-03-16T04:40:23.683Z,45.35
2024-03-16T04:42:51.485Z,44.42
2024-03-16T04:45:19.172Z,42.90
2024-03-16T04:47:46.902Z,42.73
2024-03-16T04:50:16.787Z,41.16
2024-03-16T04:52:44.435Z,40.89
2024-03-16T04:55:12.654Z,39.98
2024-03-16T04:57:40.440Z,40.48
2024-03-16T05:00:13.160Z,39.25
2024-03-16T05:02:40.938Z,38.79
2024-03-16T05:05:09.699Z,38.61
2024-03-16T05:07:37.253Z,38.58
2024-03-16T05:10:06.183Z,37.95
2024-03-16T05:12:33.850Z,38.08
2024-03-16T05:15:02.354Z,37.81
2024-03-16T05:17:32.961Z,37.84
2024-03-16T05:20:00.584Z,37.33
2024-03-16T05:22:28.483Z,37.31
2024-03-16T05:24:56.124Z,37.54
2024-03-16T05:27:23.738Z,38.32
2024-03-16T05:29:52.921Z,38.58
2024-03-16T05:32:20.520Z,38.89
2024-03-16T05:34:51.385Z,38.69
2024-03-16T05:37:31.440Z,39.64
2024-03-16T05:39:59.724Z,38.87
2024-03-16T05:42:27.486Z,39.51
2024-03-16T05:44:55.434Z,39.27
2024-03-16T05:47:23.596Z,39.52
2024-03-16T05:49:51.258Z,39.70
2024-03-16T05:52:18.820Z,40.14
2024-03-16T05:54:46.476Z,40.74
2024-03-16T05:57:14.419Z,40.72
2024-03-16T05:59:41.964Z,40.49
2024-03-16T06:02:09.634Z,41.37
2024-03-16T06:04:37.440Z,41.28
2024-03-16T06:07:05.104Z,41.36
2024-03-16T06:09:32.767Z,42.05
2024-03-16T06:12:00.406Z,41.94
2024-03-16T06:14:27.983Z,41.80
2024-03-16T06:16:55.784Z,42.14
2024-03-16T06:19:26.158Z,41.78
2024-03-16T06:21:53.807Z,42.02
2024-03-16T06:24:24.963Z,42.65
2024-03-16T06:27:01.939Z,42.40
2024-03-16T06:29:32.282Z,42.63
2024-03-16T06:32:07.044Z,42.89
2024-03-16T06:34:35.385Z,42.73
2024-03-16T06:37:03.064Z,42.02
2024-03-16T06:39:31.353Z,42.21
2024-03-16T06:41:58.916Z,42.49
2024-03-16T06:44:26.568Z,42.21
2024-03-16T06:46:54.319Z,41.81
2024-03-16T06:49:21.942Z,41.94
2024-03-16T06:51:49.609Z,41.81
2024-03-16T06:54:17.280Z,41.64
2024-03-16T06:56:44.919Z,41.23
2024-03-16T06:59:12.622Z,41.35
2024-03-16T07:01:40.216Z,41.56
2024-03-16T07:04:10.468Z,42.24
2024-03-16T07:06:38.225Z,41.75
2024-03-16T07:09:09.916Z,41.04
2024-03-16T07:11:37.554Z,40.96
2024-03-16T07:14:05.481Z,40.67
2024-03-16T07:16:33.174Z,40.33
2024-03-16T07:19:00.767Z,40.07
2024-03-16T07:21:29.778Z,39.79
2024-03-16T07:23:58.070Z,40.55
2024-03-16T07:26:25.733Z,39.97
2024-03-16T07:28:53.379Z,38.23
2024-03-16T07:31:21.224Z,38.04
2024-03-16T07:33:48.943Z,38.82
2024-03-16T07:36:16.653Z,37.50
2024-03-16T07:38:44.274Z,37.00
2024-03-16T07:41:11.933Z,36.68
2024-03-16T07:43:39.477Z,36.36
2024-03-16T07:46:07.888Z,36.35
2024-03-16T07:48:37.153Z,35.99
2024-03-16T07:51:07.680Z,36.22
2024-03-16T07:53:35.300Z,36.23
2024-03-16T07:56:21.384Z,36.17
2024-03-16T07:58:49.157Z,35.68
2024-03-16T08:01:17.882Z,35.97
2024-03-16T08:03:45.711Z,35.36
2024-03-16T08:06:13.420Z,35.96
2024-03-16T08:08:43.397Z,35.06
2024-03-16T08:11:12.598Z,34.83
2024-03-16T08:13:40.356Z,34.74
2024-03-16T08:16:26.033Z,34.41
2024-03-16T08:18:53.807Z,33.99
2024-03-16T08:21:21.594Z,33.93
2024-03-16T08:23:49.314Z,34.04
2024-03-16T08:26:17.142Z,34.23
2024-03-16T08:29:03.676Z,33.83
2024-03-16T08:31:31.334Z,33.84
2024-03-16T08:33:58.915Z,33.72
2024-03-16T08:36:26.771Z,33.86
2024-03-16T08:38:54.427Z,33.63
2024-03-16T08:41:22.013Z,33.67
2024-03-16T08:43:49.627Z,34.18
2024-03-16T08:46:17.297Z,33.76
2024-03-16T08:48:47.191Z,33.96
2024-03-16T08:51:14.991Z,33.91
2024-03-16T08:53:43.127Z,33.91
2024-03-16T08:56:10.746Z,33.93
2024-03-16T08:58:38.408Z,33.74
2024-03-16T09:01:06.517Z,33.96
2024-03-16T09:03:34.295Z,34.17
2024-03-16T09:06:03.078Z,33.80
2024-03-16T09:08:32.384Z,33.83
2024-03-16T09:11:00.042Z,33.50
2024-03-16T09:13:27.657Z,33.05
2024-03-16T09:15:55.328Z,33.49
2024-03-16T09:18:22.984Z,32.97
2024-03-16T09:20:50.588Z,33.00
2024-03-16T09:23:18.330Z,33.19
2024-03-16T09:25:48.107Z,33.49
2024-03-16T09:28:16.094Z,33.61
2024-03-16T09:30:46.616Z,33.68
2024-03-16T09:33:14.450Z,33.83
2024-03-16T09:35:43.420Z,33.70
2024-03-16T09:38:13.928Z,34.17
2024-03-16T09:40:44.945Z,34.47
